createdAt,value
2018-03-30T00:00:40.802Z,3.07
2018-03-30T00:01:40.751Z,3.05
2018-03-30T00:02:40.755Z,3.10
2018-03-30T00:03:40.762Z,3.09
2018-03-30T00:04:40.767Z,3.06
2018-03-30T00:05:40.774Z,3.09
2018-03-30T00:06:40.778Z,3.09
2018-03-30T00:07:40.782Z,3.16
2018-03-30T00:08:40.787Z,3.18
2018-03-30T00:09:40.792Z,3.20
2018-03-30T00:10:40.797Z,3.13
2018-03-30T00:11:40.807Z,3.07
2018-03-30T00:12:40.808Z,2.98
2018-03-30T00:13:40.809Z,2.92
2018-03-30T00:14:40.817Z,2.95
2018-03-30T00:15:40.818Z,3.09
2018-03-30T00:16:40.825Z,3.06
2018-03-30T00:17:40.831Z,3.05
2018-03-30T00:18:40.842Z,3.12
2018-03-30T00:19:40.842Z,3.02
2018-03-30T00:20:40.846Z,3.07
2018-03-30T00:21:40.849Z,2.98
2018-03-30T00:22:40.855Z,3.12
2018-03-30T00:23:40.861Z,2.98
2018-03-30T00:24:40.864Z,2.92
2018-03-30T00:25:40.871Z,3.06
2018-03-30T00:26:40.873Z,3.06
2018-03-30T00:27:40.878Z,2.97
2018-03-30T00:28:40.884Z,2.92
2018-03-30T00:29:40.893Z,2.69
2018-03-30T00:30:40.895Z,2.70
2018-03-30T00:31:40.899Z,2.28
2018-03-30T00:32:40.904Z,2.19
2018-03-30T00:33:40.912Z,1.89
2018-03-30T00:34:40.913Z,2.04
2018-03-30T00:35:40.924Z,2.15
2018-03-30T00:36:40.922Z,2.26
2018-03-30T00:37:40.929Z,2.16
2018-03-30T00:38:40.932Z,2.31
2018-03-30T00:39:40.939Z,2.27
2018-03-30T00:40:40.942Z,2.31
2018-03-30T00:41:40.951Z,2.40
2018-03-30T00:42:40.957Z,2.45
2018-03-30T00:43:40.954Z,2.41
2018-03-30T00:44:40.959Z,2.59
2018-03-30T00:45:40.965Z,2.53
2018-03-30T00:46:40.970Z,2.52
2018-03-30T00:47:40.975Z,2.51
2018-03-30T00:48:40.977Z,2.56
2018-03-30T00:49:40.983Z,2.59
2018-03-30T00:50:41.000Z,2.69
2018-03-30T00:51:40.992Z,2.73
2018-03-30T00:52:41.001Z,2.59
2018-03-30T00:53:41.002Z,2.59
2018-03-30T00:54:41.007Z,2.63
2018-03-30T00:55:41.014Z,2.56
2018-03-30T00:56:41.014Z,2.52
2018-03-30T00:57:41.019Z,2.52
2018-03-30T00:58:41.025Z,2.38
2018-03-30T00:59:41.030Z,2.45
2018-03-30T01:00:41.036Z,2.38
2018-03-30T01:01:41.048Z,2.44
2018-03-30T01:02:41.046Z,2.35
2018-03-30T01:03:41.047Z,2.33
2018-03-30T01:04:41.051Z,2.44
2018-03-30T01:05:41.058Z,2.34
2018-03-30T01:06:41.061Z,2.31
2018-03-30T01:07:41.068Z,2.40
2018-03-30T01:08:41.071Z,2.35
2018-03-30T01:09:41.075Z,2.38
2018-03-30T01:10:41.078Z,2.35
2018-03-30T01:11:41.084Z,2.46
2018-03-30T01:12:41.090Z,2.46
2018-03-30T01:13:41.096Z,2.52
2018-03-30T01:14:41.100Z,2.55
2018-03-30T01:15:41.103Z,2.53
2018-03-30T01:16:41.111Z,2.55
2018-03-30T01:17:41.119Z,2.58
2018-03-30T01:18:41.116Z,2.71
2018-03-30T01:19:41.120Z,2.63
2018-03-30T01:20:41.134Z,2.61
2018-03-30T01:21:41.131Z,2.55
2018-03-30T01:22:41.136Z,2.58
2018-03-30T01:23:41.139Z,2.53
2018-03-30T01:24:41.144Z,2.58
2018-03-30T01:25:41.148Z,2.55
2018-03-30T01:26:41.160Z,2.45
2018-03-30T01:27:41.161Z,2.46
2018-03-30T01:28:41.165Z,2.55
2018-03-30T01:29:41.167Z,2.58
2018-03-30T01:30:41.175Z,2.56
2018-03-30T01:31:41.177Z,2.64
2018-03-30T01:32:41.181Z,2.58
2018-03-30T01:33:41.186Z,2.63
2018-03-30T01:34:41.190Z,2.45
2018-03-30T01:35:41.197Z,2.45
2018-03-30T01:36:41.201Z,2.35
2018-03-30T01:37:41.205Z,2.31
2018-03-30T01:38:41.208Z,2.31
2018-03-30T01:39:41.213Z,2.31
2018-03-30T01:40:41.216Z,2.31
2018-03-30T01:41:41.226Z,2.31
2018-03-30T01:42:41.302Z,2.37
2018-03-30T01:43:41.230Z,2.45
2018-03-30T01:44:41.234Z,2.45
2018-03-30T01:45:41.243Z,2.40
2018-03-30T01:46:41.248Z,2.52
2018-03-30T01:47:41.247Z,2.40
2018-03-30T01:48:41.253Z,2.45
2018-03-30T01:49:41.260Z,2.46
2018-03-30T01:50:41.261Z,2.46
2018-03-30T01:51:41.269Z,2.37
2018-03-30T01:52:41.279Z,2.48
2018-03-30T01:53:41.275Z,2.44
2018-03-30T01:54:41.282Z,2.28
2018-03-30T01:55:41.284Z,2.30
2018-03-30T01:56:41.289Z,2.34
2018-03-30T01:57:41.294Z,2.35
2018-03-30T01:58:41.301Z,2.44
2018-03-30T01:59:41.300Z,2.38
2018-03-30T02:00:41.308Z,2.45
2018-03-30T02:01:41.310Z,2.52
2018-03-30T02:02:41.444Z,2.56
2018-03-30T02:03:41.320Z,2.52
2018-03-30T02:04:41.324Z,2.49
2018-03-30T02:05:41.331Z,2.52
2018-03-30T02:06:41.335Z,2.45
2018-03-30T02:07:41.337Z,2.45
2018-03-30T02:08:41.345Z,2.44
2018-03-30T02:09:41.347Z,2.53
2018-03-30T02:10:41.358Z,2.46
2018-03-30T02:11:41.355Z,2.46
2018-03-30T02:12:41.465Z,2.40
2018-03-30T02:13:41.389Z,2.40
2018-03-30T02:14:41.372Z,2.40
2018-03-30T02:15:41.375Z,2.37
2018-03-30T02:16:41.378Z,2.40
2018-03-30T02:17:41.382Z,2.38
2018-03-30T02:18:41.387Z,2.31
2018-03-30T02:19:41.389Z,2.30
2018-03-30T02:20:41.396Z,2.27
2018-03-30T02:21:41.404Z,2.28
2018-03-30T02:22:41.460Z,2.27
2018-03-30T02:23:41.409Z,2.38
2018-03-30T02:24:41.415Z,2.30
2018-03-30T02:25:41.420Z,2.30
2018-03-30T02:26:41.425Z,2.19
2018-03-30T02:27:41.429Z,2.17
2018-03-30T02:28:41.431Z,2.20
2018-03-30T02:29:41.435Z,2.08
2018-03-30T02:30:41.439Z,2.12
2018-03-30T02:31:41.443Z,2.10
2018-03-30T02:32:41.454Z,2.13
2018-03-30T02:33:41.467Z,2.09
2018-03-30T02:34:41.459Z,2.12
2018-03-30T02:35:41.462Z,2.19
2018-03-30T02:36:41.469Z,2.19
2018-03-30T02:37:41.474Z,2.19
2018-03-30T02:38:41.482Z,2.19
2018-03-30T02:39:41.478Z,2.22
2018-03-30T02:40:41.485Z,2.16
2018-03-30T02:41:41.490Z,2.16
2018-03-30T02:42:41.514Z,2.26
2018-03-30T02:43:41.499Z,2.17
2018-03-30T02:44:41.500Z,2.13
2018-03-30T02:45:41.508Z,2.12
2018-03-30T02:46:41.511Z,2.17
2018-03-30T02:47:41.512Z,2.13
2018-03-30T02:48:41.529Z,2.04
2018-03-30T02:49:41.526Z,2.10
2018-03-30T02:50:41.526Z,2.04
2018-03-30T02:51:41.533Z,1.89
2018-03-30T02:52:41.534Z,1.98
2018-03-30T02:53:41.539Z,2.04
2018-03-30T02:54:41.545Z,2.12
2018-03-30T02:55:41.550Z,2.02
2018-03-30T02:56:41.555Z,2.17
2018-03-30T02:57:41.563Z,2.19
2018-03-30T02:58:41.562Z,2.08
2018-03-30T02:59:41.566Z,2.12
2018-03-30T03:00:41.571Z,2.19
2018-03-30T03:01:41.573Z,2.09
2018-03-30T03:02:41.585Z,2.12
2018-03-30T03:03:41.580Z,2.02
2018-03-30T03:04:41.592Z,2.10
2018-03-30T03:05:41.588Z,2.12
2018-03-30T03:06:41.596Z,2.13
2018-03-30T03:07:41.605Z,2.02
2018-03-30T03:08:41.605Z,1.98
2018-03-30T03:09:41.608Z,2.06
2018-03-30T03:10:41.614Z,2.02
2018-03-30T03:11:41.617Z,1.87
2018-03-30T03:12:41.620Z,1.91
2018-03-30T03:13:41.623Z,1.79
2018-03-30T03:14:41.632Z,1.78
2018-03-30T03:15:41.636Z,1.78
2018-03-30T03:16:41.636Z,1.78
2018-03-30T03:17:41.638Z,1.75
2018-03-30T03:18:41.646Z,1.79
2018-03-30T03:19:41.649Z,1.79
2018-03-30T03:20:41.654Z,1.76
2018-03-30T03:21:41.659Z,1.83
2018-03-30T03:22:41.660Z,1.76
2018-03-30T03:23:41.665Z,1.83
2018-03-30T03:24:41.674Z,1.72
2018-03-30T03:25:41.675Z,1.79
2018-03-30T03:26:41.678Z,1.76
2018-03-30T03:27:41.691Z,1.73
2018-03-30T03:28:41.686Z,1.76
2018-03-30T03:29:41.693Z,1.76
2018-03-30T03:30:41.696Z,1.76
2018-03-30T03:31:41.700Z,1.69
2018-03-30T03:32:41.703Z,1.65
2018-03-30T03:33:41.709Z,1.64
2018-03-30T03:34:41.718Z,1.65
2018-03-30T03:35:41.715Z,1.80
2018-03-30T03:36:41.724Z,1.68
2018-03-30T03:37:41.724Z,1.85
2018-03-30T03:38:41.727Z,1.78
2018-03-30T03:39:41.731Z,1.76
2018-03-30T03:40:41.735Z,1.87
2018-03-30T03:41:41.740Z,1.83
2018-03-30T03:42:41.744Z,1.80
2018-03-30T03:43:41.746Z,1.79
2018-03-30T03:44:41.754Z,1.76
2018-03-30T03:45:41.756Z,1.79
2018-03-30T03:46:41.763Z,1.72
2018-03-30T03:47:41.766Z,1.85
2018-03-30T03:48:41.770Z,1.85
2018-03-30T03:49:41.771Z,1.89
2018-03-30T03:50:41.782Z,2.04
2018-03-30T03:51:41.782Z,2.02
2018-03-30T03:52:41.788Z,1.90
2018-03-30T03:53:41.789Z,1.83
2018-03-30T03:54:41.794Z,1.94
2018-03-30T03:55:41.798Z,1.90
2018-03-30T03:56:41.836Z,1.90
2018-03-30T03:57:41.806Z,1.79
2018-03-30T03:58:41.809Z,1.80
2018-03-30T03:59:41.812Z,1.89
2018-03-30T04:00:41.818Z,1.90
2018-03-30T04:01:41.821Z,1.97
2018-03-30T04:02:41.829Z,2.10
2018-03-30T04:03:41.832Z,2.16
2018-03-30T04:04:41.833Z,2.12
2018-03-30T04:05:41.838Z,2.10
2018-03-30T04:06:41.844Z,2.06
2018-03-30T04:07:41.847Z,2.13
2018-03-30T04:08:41.848Z,2.09
2018-03-30T04:09:41.855Z,2.12
2018-03-30T04:10:41.863Z,2.15
2018-03-30T04:11:41.863Z,2.09
2018-03-30T04:12:41.868Z,2.13
2018-03-30T04:13:41.873Z,2.19
2018-03-30T04:14:41.875Z,2.10
2018-03-30T04:15:41.879Z,2.19
2018-03-30T04:16:41.884Z,2.09
2018-03-30T04:17:41.890Z,2.16
2018-03-30T04:18:41.890Z,2.20
2018-03-30T04:19:41.901Z,2.16
2018-03-30T04:20:41.902Z,2.20
2018-03-30T04:21:41.908Z,2.20
2018-03-30T04:22:41.911Z,2.23
2018-03-30T04:23:41.912Z,2.20
2018-03-30T04:24:41.923Z,2.26
2018-03-30T04:25:41.922Z,2.26
2018-03-30T04:26:41.928Z,2.20
2018-03-30T04:27:41.932Z,2.33
2018-03-30T04:28:41.935Z,2.30
2018-03-30T04:29:41.939Z,2.27
2018-03-30T04:30:41.943Z,2.30
2018-03-30T04:31:41.949Z,2.31
2018-03-30T04:32:41.950Z,2.30
2018-03-30T04:33:41.960Z,2.27
2018-03-30T04:34:41.964Z,2.28
2018-03-30T04:35:41.966Z,2.30
2018-03-30T04:36:41.973Z,2.30
2018-03-30T04:37:41.974Z,2.30
2018-03-30T04:38:41.988Z,2.31
2018-03-30T04:39:41.988Z,2.27
2018-03-30T04:40:41.989Z,2.30
2018-03-30T04:41:41.993Z,2.35
2018-03-30T04:42:41.996Z,2.41
2018-03-30T04:43:42.000Z,2.40
2018-03-30T04:44:42.008Z,2.40
2018-03-30T04:45:42.009Z,2.33
2018-03-30T04:46:42.018Z,2.38
2018-03-30T04:47:42.017Z,2.34
2018-03-30T04:48:42.022Z,2.30
2018-03-30T04:49:42.027Z,2.33
2018-03-30T04:50:42.032Z,2.27
2018-03-30T04:51:42.044Z,2.28
2018-03-30T04:52:42.039Z,2.27
2018-03-30T04:53:42.043Z,2.26
2018-03-30T04:54:42.049Z,2.26
2018-03-30T04:55:42.054Z,2.26
2018-03-30T04:56:42.058Z,2.31
2018-03-30T04:57:42.064Z,2.33
2018-03-30T04:58:42.067Z,2.30
2018-03-30T04:59:42.073Z,2.26
2018-03-30T05:00:42.073Z,2.30
2018-03-30T05:01:42.081Z,2.34
2018-03-30T05:02:42.086Z,2.34
2018-03-30T05:03:42.088Z,2.30
2018-03-30T05:04:42.092Z,2.28
2018-03-30T05:05:42.096Z,2.34
2018-03-30T05:06:42.210Z,2.41
2018-03-30T05:07:42.106Z,2.27
2018-03-30T05:08:42.110Z,2.44
2018-03-30T05:09:42.121Z,2.44
2018-03-30T05:10:42.119Z,2.44
2018-03-30T05:11:42.125Z,2.40
2018-03-30T05:12:42.128Z,2.40
2018-03-30T05:13:42.133Z,2.37
2018-03-30T05:14:42.137Z,2.40
2018-03-30T05:15:42.140Z,2.37
2018-03-30T05:16:42.152Z,2.35
2018-03-30T05:17:42.151Z,2.38
2018-03-30T05:18:42.154Z,2.40
2018-03-30T05:19:42.159Z,2.37
2018-03-30T05:20:42.168Z,2.27
2018-03-30T05:21:42.170Z,2.33
2018-03-30T05:22:42.172Z,2.34
2018-03-30T05:23:42.179Z,2.28
2018-03-30T05:24:42.183Z,2.35
2018-03-30T05:25:42.184Z,2.22
2018-03-30T05:26:42.192Z,2.17
2018-03-30T05:27:42.196Z,2.16
2018-03-30T05:28:42.199Z,2.20
2018-03-30T05:29:42.204Z,2.17
2018-03-30T05:30:42.207Z,2.19
2018-03-30T05:31:42.211Z,2.16
2018-03-30T05:32:42.217Z,2.20
2018-03-30T05:33:42.224Z,2.19
2018-03-30T05:34:42.225Z,2.08
2018-03-30T05:35:42.232Z,2.10
2018-03-30T05:36:42.234Z,2.17
2018-03-30T05:37:42.238Z,2.19
2018-03-30T05:38:42.244Z,2.28
2018-03-30T05:39:42.252Z,2.41
2018-03-30T05:40:42.252Z,2.34
2018-03-30T05:41:42.258Z,2.45
2018-03-30T05:42:42.258Z,2.46
2018-03-30T05:43:42.265Z,2.53
2018-03-30T05:44:42.269Z,2.55
2018-03-30T05:45:42.279Z,2.64
2018-03-30T05:46:42.280Z,2.56
2018-03-30T05:47:42.280Z,2.58
2018-03-30T05:48:42.285Z,2.56
2018-03-30T05:49:42.292Z,2.61
2018-03-30T05:50:42.297Z,2.61
2018-03-30T05:51:42.298Z,2.74
2018-03-30T05:52:42.328Z,2.79
2018-03-30T05:53:42.309Z,2.79
2018-03-30T05:54:42.318Z,2.85
2018-03-30T05:55:42.318Z,2.85
2018-03-30T05:56:42.324Z,2.74
2018-03-30T05:57:42.329Z,2.74
2018-03-30T05:58:42.333Z,2.81
2018-03-30T05:59:42.349Z,2.82
2018-03-30T06:00:42.341Z,2.81
2018-03-30T06:01:42.348Z,2.79
2018-03-30T06:02:42.353Z,2.79
2018-03-30T06:03:42.354Z,2.92
2018-03-30T06:04:42.361Z,2.85
2018-03-30T06:05:42.364Z,2.87
2018-03-30T06:06:42.369Z,2.76
2018-03-30T06:07:42.373Z,2.84
2018-03-30T06:08:42.376Z,2.91
2018-03-30T06:09:42.390Z,2.92
2018-03-30T06:10:42.389Z,2.88
2018-03-30T06:11:42.392Z,2.94
2018-03-30T06:12:42.395Z,2.92
2018-03-30T06:13:42.406Z,2.97
2018-03-30T06:14:42.407Z,3.02
2018-03-30T06:15:42.417Z,3.03
2018-03-30T06:16:42.416Z,3.06
2018-03-30T06:17:42.421Z,2.98
2018-03-30T06:18:42.426Z,2.94
2018-03-30T06:19:42.428Z,3.09
2018-03-30T06:20:42.434Z,3.07
2018-03-30T06:21:42.440Z,3.12
2018-03-30T06:22:42.443Z,3.03
2018-03-30T06:23:42.453Z,3.00
2018-03-30T06:24:42.455Z,3.03
2018-03-30T06:25:42.459Z,3.15
2018-03-30T06:26:42.465Z,3.18
2018-03-30T06:27:42.468Z,3.20
2018-03-30T06:28:42.474Z,3.10
2018-03-30T06:29:42.479Z,3.05
2018-03-30T06:30:42.482Z,3.21
2018-03-30T06:31:42.491Z,3.12
2018-03-30T06:32:42.492Z,3.15
2018-03-30T06:33:42.501Z,3.13
2018-03-30T06:34:42.503Z,3.20
2018-03-30T06:35:42.506Z,3.27
2018-03-30T06:36:42.511Z,3.30
2018-03-30T06:37:42.517Z,3.40
2018-03-30T06:38:42.550Z,3.42
2018-03-30T06:39:42.529Z,3.44
2018-03-30T06:40:42.531Z,3.42
2018-03-30T06:41:42.541Z,3.49
2018-03-30T06:42:42.544Z,3.60
2018-03-30T06:43:42.614Z,3.60
2018-03-30T06:44:42.555Z,3.64
2018-03-30T06:45:42.560Z,3.67
2018-03-30T06:46:42.566Z,3.68
2018-03-30T06:47:42.569Z,3.75
2018-03-30T06:48:42.573Z,3.67
2018-03-30T06:49:42.578Z,3.79
2018-03-30T06:50:42.585Z,3.62
2018-03-30T06:51:42.590Z,3.78
2018-03-30T06:52:42.594Z,3.89
2018-03-30T06:53:42.597Z,3.86
2018-03-30T06:54:42.607Z,3.85
2018-03-30T06:55:42.609Z,3.83
2018-03-30T06:56:42.625Z,3.89
2018-03-30T06:57:42.658Z,3.90
2018-03-30T06:58:42.625Z,3.92
2018-03-30T06:59:42.652Z,3.90
2018-03-30T07:00:42.634Z,3.90
2018-03-30T07:01:42.688Z,3.97
2018-03-30T07:02:42.646Z,3.94
2018-03-30T07:03:42.652Z,3.98
2018-03-30T07:04:42.661Z,4.04
2018-03-30T07:05:42.664Z,4.01
2018-03-30T07:06:42.670Z,4.07
2018-03-30T07:07:42.676Z,4.00
2018-03-30T07:08:42.679Z,4.14
2018-03-30T07:09:42.688Z,4.14
2018-03-30T07:10:42.696Z,4.08
2018-03-30T07:11:42.696Z,4.14
2018-03-30T07:12:42.702Z,4.18
2018-03-30T07:13:42.707Z,4.15
2018-03-30T07:14:42.711Z,4.10
2018-03-30T07:15:42.717Z,4.25
2018-03-30T07:16:42.725Z,4.25
2018-03-30T07:17:42.734Z,4.22
2018-03-30T07:18:42.738Z,4.18
2018-03-30T07:19:42.738Z,4.18
2018-03-30T07:20:42.746Z,4.33
2018-03-30T07:21:42.760Z,4.26
2018-03-30T07:22:42.769Z,4.29
2018-03-30T07:23:42.763Z,4.29
2018-03-30T07:24:42.785Z,4.29
2018-03-30T07:25:42.771Z,4.29
2018-03-30T07:26:42.783Z,4.33
2018-03-30T07:27:42.794Z,4.36
2018-03-30T07:28:42.820Z,4.39
2018-03-30T07:29:42.798Z,4.36
2018-03-30T07:30:42.802Z,4.44
2018-03-30T07:31:42.811Z,4.37
2018-03-30T07:32:42.815Z,4.37
2018-03-30T07:33:42.818Z,4.46
2018-03-30T07:34:42.831Z,4.54
2018-03-30T07:35:42.826Z,4.52
2018-03-30T07:36:42.837Z,4.47
2018-03-30T07:37:42.838Z,4.51
2018-03-30T07:38:42.846Z,4.51
2018-03-30T07:39:42.850Z,4.55
2018-03-30T07:40:42.862Z,4.55
2018-03-30T07:41:42.863Z,4.58
2018-03-30T07:42:42.870Z,4.67
2018-03-30T07:43:42.910Z,4.72
2018-03-30T07:44:43.420Z,4.64
2018-03-30T07:45:42.886Z,4.62
2018-03-30T07:46:42.893Z,4.67
2018-03-30T07:47:42.940Z,4.70
2018-03-30T07:48:42.906Z,4.69
2018-03-30T07:49:42.911Z,4.67
2018-03-30T07:50:42.914Z,4.73
2018-03-30T07:51:42.923Z,4.77
2018-03-30T07:52:42.927Z,4.72
2018-03-30T07:53:42.932Z,4.77
2018-03-30T07:54:42.939Z,4.80
2018-03-30T07:55:42.943Z,4.88
2018-03-30T07:56:42.946Z,4.91
2018-03-30T07:57:42.956Z,4.94
2018-03-30T07:58:42.965Z,4.89
2018-03-30T07:59:42.970Z,4.91
2018-03-30T08:00:42.974Z,5.05
2018-03-30T08:01:42.984Z,4.96
2018-03-30T08:02:42.985Z,5.07
2018-03-30T08:03:42.998Z,5.01
2018-03-30T08:04:42.996Z,4.94
2018-03-30T08:05:43.003Z,4.94
2018-03-30T08:06:43.012Z,5.02
2018-03-30T08:07:43.015Z,5.02
2018-03-30T08:08:43.020Z,5.09
2018-03-30T08:09:43.024Z,5.05
2018-03-30T08:10:43.030Z,5.07
2018-03-30T08:11:43.039Z,4.98
2018-03-30T08:12:43.045Z,5.02
2018-03-30T08:13:43.052Z,4.96
2018-03-30T08:14:43.057Z,4.96
2018-03-30T08:15:43.062Z,4.86
2018-03-30T08:16:43.078Z,4.94
2018-03-30T08:17:43.074Z,4.86
2018-03-30T08:18:43.929Z,4.92
2018-03-30T08:19:43.086Z,4.92
2018-03-30T08:20:43.092Z,5.05
2018-03-30T08:21:43.111Z,5.04
2018-03-30T08:22:43.103Z,4.94
2018-03-30T08:23:43.109Z,4.94
2018-03-30T08:24:43.119Z,4.95
2018-03-30T08:25:43.128Z,4.98
2018-03-30T08:26:43.128Z,4.94
2018-03-30T08:27:43.135Z,5.09
2018-03-30T08:28:43.138Z,5.05
2018-03-30T08:29:43.144Z,5.09
2018-03-30T08:30:43.153Z,5.17
2018-03-30T08:31:43.156Z,5.22
2018-03-30T08:32:43.163Z,5.25
2018-03-30T08:33:43.169Z,5.34
2018-03-30T08:34:43.174Z,5.45
2018-03-30T08:35:43.179Z,5.43
2018-03-30T08:36:43.186Z,5.55
2018-03-30T08:37:43.193Z,5.41
2018-03-30T08:38:43.198Z,5.43
2018-03-30T08:39:43.205Z,5.46
2018-03-30T08:40:43.209Z,5.49
2018-03-30T08:41:43.998Z,5.57
2018-03-30T08:42:43.223Z,5.63
2018-03-30T08:43:43.228Z,5.74
2018-03-30T08:44:43.232Z,5.71
2018-03-30T08:45:43.241Z,5.75
2018-03-30T08:46:43.264Z,5.88
2018-03-30T08:47:43.254Z,5.92
2018-03-30T08:48:43.259Z,5.92
2018-03-30T08:49:43.265Z,5.93
2018-03-30T08:50:43.273Z,6.04
2018-03-30T08:51:43.277Z,6.22
2018-03-30T08:52:43.285Z,6.19
2018-03-30T08:53:43.291Z,6.28
2018-03-30T08:54:43.300Z,6.29
2018-03-30T08:55:43.302Z,6.36
2018-03-30T08:56:43.310Z,6.38
2018-03-30T08:57:43.314Z,6.43
2018-03-30T08:58:43.321Z,6.48
2018-03-30T08:59:43.328Z,6.44
2018-03-30T09:00:43.347Z,6.43
2018-03-30T09:01:43.341Z,6.50
2018-03-30T09:02:43.347Z,6.51
2018-03-30T09:03:43.362Z,6.56
2018-03-30T09:04:43.360Z,6.56
2018-03-30T09:05:43.397Z,6.54
2018-03-30T09:06:43.373Z,6.56
2018-03-30T09:07:43.398Z,6.62
2018-03-30T09:08:43.386Z,6.65
2018-03-30T09:09:43.413Z,6.80
2018-03-30T09:10:43.401Z,6.79
2018-03-30T09:11:43.404Z,6.80
2018-03-30T09:12:43.413Z,6.84
2018-03-30T09:13:43.421Z,6.89
2018-03-30T09:14:43.429Z,6.84
2018-03-30T09:15:43.435Z,6.86
2018-03-30T09:16:43.439Z,6.90
2018-03-30T09:17:43.451Z,7.04
2018-03-30T09:18:43.455Z,7.01
2018-03-30T09:19:43.457Z,7.09
2018-03-30T09:20:43.466Z,7.19
2018-03-30T09:21:43.473Z,7.23
2018-03-30T09:22:43.480Z,7.23
2018-03-30T09:23:43.488Z,7.24
2018-03-30T09:24:43.493Z,7.32
2018-03-30T09:25:43.498Z,7.47
2018-03-30T09:26:43.505Z,7.53
2018-03-30T09:27:43.513Z,7.66
2018-03-30T09:28:43.519Z,7.79
2018-03-30T09:29:43.533Z,7.74
2018-03-30T09:30:43.533Z,7.85
2018-03-30T09:31:43.539Z,8.02
2018-03-30T09:32:43.546Z,8.04
2018-03-30T09:33:43.555Z,8.03
2018-03-30T09:34:43.560Z,8.14
2018-03-30T09:35:43.574Z,8.22
2018-03-30T09:36:43.572Z,8.36
2018-03-30T09:37:43.584Z,8.44
2018-03-30T09:38:43.633Z,8.37
2018-03-30T09:39:43.601Z,8.40
2018-03-30T09:40:43.604Z,8.58
2018-03-30T09:41:43.609Z,8.55
2018-03-30T09:42:43.617Z,8.58
2018-03-30T09:43:43.628Z,8.51
2018-03-30T09:44:43.632Z,8.63
2018-03-30T09:45:43.645Z,8.66
2018-03-30T09:46:43.645Z,8.69
2018-03-30T09:47:43.653Z,8.72
2018-03-30T09:48:43.661Z,8.66
2018-03-30T09:49:43.668Z,8.66
2018-03-30T09:50:43.674Z,8.73
2018-03-30T09:51:43.681Z,8.87
2018-03-30T09:52:43.689Z,8.81
2018-03-30T09:53:43.699Z,8.81
2018-03-30T09:54:43.706Z,8.87
2018-03-30T09:55:44.446Z,9.02
2018-03-30T09:56:43.719Z,9.02
2018-03-30T09:57:43.736Z,8.99
2018-03-30T09:58:43.734Z,9.09
2018-03-30T09:59:43.741Z,9.06
2018-03-30T10:00:43.748Z,9.12
2018-03-30T10:01:43.756Z,9.10
2018-03-30T10:02:43.770Z,9.20
2018-03-30T10:03:43.770Z,9.25
2018-03-30T10:04:43.780Z,9.39
2018-03-30T10:05:43.799Z,9.38
2018-03-30T10:06:43.794Z,9.45
2018-03-30T10:07:43.806Z,9.48
2018-03-30T10:08:43.808Z,9.58
2018-03-30T10:09:43.828Z,9.68
2018-03-30T10:10:43.826Z,9.85
2018-03-30T10:11:43.897Z,9.85
2018-03-30T10:12:43.841Z,9.89
2018-03-30T10:13:43.849Z,10.01
2018-03-30T10:14:43.855Z,10.06
2018-03-30T10:15:43.863Z,10.19
2018-03-30T10:16:43.873Z,10.37
2018-03-30T10:17:43.880Z,10.37
2018-03-30T10:18:43.890Z,10.55
2018-03-30T10:19:43.898Z,10.68
2018-03-30T10:20:43.916Z,10.68
2018-03-30T10:21:43.912Z,10.77
2018-03-30T10:22:43.960Z,10.70
2018-03-30T10:23:43.982Z,10.80
2018-03-30T10:24:43.938Z,10.83
2018-03-30T10:25:43.950Z,10.96
2018-03-30T10:26:43.953Z,10.99
2018-03-30T10:27:43.970Z,11.16
2018-03-30T10:28:43.975Z,11.32
2018-03-30T10:29:43.981Z,11.39
2018-03-30T10:30:43.986Z,11.47
2018-03-30T10:31:43.993Z,11.41
2018-03-30T10:32:44.954Z,11.50
2018-03-30T10:33:44.010Z,11.54
2018-03-30T10:34:44.017Z,11.70
2018-03-30T10:35:44.024Z,11.75
2018-03-30T10:36:44.034Z,11.82
2018-03-30T10:37:44.048Z,11.93
2018-03-30T10:38:44.059Z,11.89
2018-03-30T10:39:44.060Z,12.04
2018-03-30T10:40:44.067Z,12.04
2018-03-30T10:41:44.077Z,12.01
2018-03-30T10:42:44.083Z,12.01
2018-03-30T10:43:44.092Z,12.13
2018-03-30T10:44:44.102Z,12.23
2018-03-30T10:45:44.162Z,12.33
2018-03-30T10:46:44.119Z,12.27
2018-03-30T10:47:44.163Z,12.26
2018-03-30T10:48:44.141Z,12.42
2018-03-30T10:49:44.193Z,12.59
2018-03-30T10:50:44.214Z,12.70
2018-03-30T10:51:44.175Z,12.74
2018-03-30T10:52:44.173Z,12.78
2018-03-30T10:53:44.207Z,12.77
2018-03-30T10:54:44.193Z,12.60
2018-03-30T10:55:44.203Z,12.79
2018-03-30T10:56:44.210Z,12.87
2018-03-30T10:57:44.215Z,13.04
2018-03-30T10:58:44.227Z,13.14
2018-03-30T10:59:44.233Z,13.27
2018-03-30T11:00:44.243Z,13.30
2018-03-30T11:01:44.253Z,13.36
2018-03-30T11:02:44.264Z,13.46
2018-03-30T11:03:44.271Z,13.55
2018-03-30T11:04:44.283Z,13.65
2018-03-30T11:05:44.292Z,13.70
2018-03-30T11:06:44.301Z,13.91
2018-03-30T11:07:44.311Z,13.91
2018-03-30T11:08:44.320Z,14.09
2018-03-30T11:09:44.352Z,14.12
2018-03-30T11:10:44.346Z,14.20
2018-03-30T11:11:44.348Z,14.06
2018-03-30T11:12:44.358Z,14.04
2018-03-30T11:13:44.371Z,14.01
2018-03-30T11:14:44.379Z,13.88
2018-03-30T11:15:44.387Z,13.87
2018-03-30T11:16:44.399Z,13.73
2018-03-30T11:17:44.408Z,13.83
2018-03-30T11:18:44.419Z,13.83
2018-03-30T11:19:44.430Z,13.73
2018-03-30T11:20:44.438Z,13.67
2018-03-30T11:21:44.460Z,13.55
2018-03-30T11:22:44.463Z,13.61
2018-03-30T11:23:44.466Z,13.70
2018-03-30T11:24:44.476Z,13.62
2018-03-30T11:25:44.487Z,13.80
2018-03-30T11:26:44.499Z,13.80
2018-03-30T11:27:44.506Z,13.96
2018-03-30T11:28:44.517Z,14.09
2018-03-30T11:29:45.031Z,14.25
2018-03-30T11:30:44.536Z,14.32
2018-03-30T11:31:44.546Z,14.62
2018-03-30T11:32:44.564Z,14.74
2018-03-30T11:33:44.569Z,14.67
2018-03-30T11:34:44.577Z,14.74
2018-03-30T11:35:44.594Z,14.72
2018-03-30T11:36:44.600Z,14.71
2018-03-30T11:37:44.607Z,14.74
2018-03-30T11:38:44.621Z,14.72
2018-03-30T11:39:44.692Z,14.47
2018-03-30T11:40:44.641Z,14.38
2018-03-30T11:41:44.652Z,14.39
2018-03-30T11:42:44.664Z,14.44
2018-03-30T11:43:44.720Z,14.43
2018-03-30T11:44:44.746Z,14.34
2018-03-30T11:45:45.473Z,14.19
2018-03-30T11:46:44.702Z,14.17
2018-03-30T11:47:44.715Z,14.32
2018-03-30T11:48:44.738Z,14.24
2018-03-30T11:49:44.738Z,14.42
2018-03-30T11:50:44.751Z,14.39
2018-03-30T11:51:44.751Z,14.47
2018-03-30T11:52:44.767Z,14.53
2018-03-30T11:53:44.781Z,14.74
2018-03-30T11:54:44.788Z,14.75
2018-03-30T11:55:44.796Z,14.94
2018-03-30T11:56:44.805Z,14.98
2018-03-30T11:57:44.867Z,15.12
2018-03-30T11:58:44.832Z,15.12
2018-03-30T11:59:44.840Z,15.23
2018-03-30T12:00:44.848Z,15.26
2018-03-30T12:01:44.862Z,15.38
2018-03-30T12:02:44.872Z,15.39
2018-03-30T12:03:44.881Z,15.41
2018-03-30T12:04:44.891Z,15.38
2018-03-30T12:05:45.476Z,15.23
2018-03-30T12:06:44.914Z,15.23
2018-03-30T12:07:44.924Z,15.21
2018-03-30T12:08:44.941Z,15.27
2018-03-30T12:09:44.948Z,15.20
2018-03-30T12:10:45.477Z,15.38
2018-03-30T12:11:44.970Z,15.49
2018-03-30T12:12:44.984Z,15.51
2018-03-30T12:13:44.993Z,15.35
2018-03-30T12:14:45.008Z,15.28
2018-03-30T12:15:45.014Z,15.38
2018-03-30T12:16:45.029Z,15.41
2018-03-30T12:17:45.041Z,15.61
2018-03-30T12:18:45.051Z,15.74
2018-03-30T12:19:45.064Z,15.79
2018-03-30T12:20:45.073Z,16.07
2018-03-30T12:21:45.083Z,16.25
2018-03-30T12:22:45.101Z,16.42
2018-03-30T12:23:45.107Z,16.37
2018-03-30T12:24:45.132Z,16.42
2018-03-30T12:25:45.128Z,16.38
2018-03-30T12:26:45.148Z,16.25
2018-03-30T12:27:45.155Z,15.76
2018-03-30T12:28:45.165Z,15.51
2018-03-30T12:29:45.177Z,15.97
2018-03-30T12:30:45.189Z,15.94
2018-03-30T12:31:45.200Z,15.85
2018-03-30T12:32:45.213Z,15.81
2018-03-30T12:33:45.228Z,15.81
2018-03-30T12:34:45.236Z,16.03
2018-03-30T12:35:46.057Z,15.76
2018-03-30T12:36:45.264Z,15.67
2018-03-30T12:37:45.274Z,15.94
2018-03-30T12:38:45.284Z,15.96
2018-03-30T12:39:45.296Z,15.93
2018-03-30T12:40:45.313Z,16.56
2018-03-30T12:41:45.323Z,16.86
2018-03-30T12:42:45.334Z,17.25
2018-03-30T12:43:45.345Z,17.47
2018-03-30T12:44:45.361Z,17.91
2018-03-30T12:45:45.373Z,17.76
2018-03-30T12:46:45.387Z,17.38
2018-03-30T12:47:45.400Z,17.44
2018-03-30T12:48:45.416Z,17.30
2018-03-30T12:49:45.457Z,17.11
2018-03-30T12:50:45.445Z,17.14
2018-03-30T12:51:45.459Z,17.13
2018-03-30T12:52:45.479Z,17.04
2018-03-30T12:53:45.488Z,17.43
2018-03-30T12:54:45.504Z,17.71
2018-03-30T12:55:45.519Z,17.84
2018-03-30T12:56:45.672Z,17.79
2018-03-30T12:57:45.550Z,17.71
2018-03-30T12:58:45.565Z,18.15
2018-03-30T12:59:45.578Z,18.07
2018-03-30T13:00:45.623Z,17.94
2018-03-30T13:01:45.611Z,18.25
2018-03-30T13:02:45.624Z,18.43
2018-03-30T13:03:45.640Z,18.82
2018-03-30T13:04:45.656Z,18.95
2018-03-30T13:05:45.671Z,18.99
2018-03-30T13:06:45.687Z,18.99
2018-03-30T13:07:45.700Z,19.01
2018-03-30T13:08:46.069Z,18.59
2018-03-30T13:09:45.743Z,18.72
2018-03-30T13:10:45.743Z,19.13
2018-03-30T13:11:45.762Z,18.86
2018-03-30T13:12:45.781Z,18.22